sensor_id;sensor_type;location;lat;lon;timestamp;pressure;altitude;pressure_sealevel;temperature;humidity
63665;BME280;49820;33.966;73.390;2022-10-16T00:01:49;79054.34;;;11.65;68.58
63665;BME280;49820;33.966;73.390;2022-10-16T00:04:18;79063.19;;;11.59;68.50
63665;BME280;49820;33.966;73.390;2022-10-16T00:06:47;79067.03;;;11.66;68.88
63665;BME280;49820;33.966;73.390;2022-10-16T00:09:16;79065.97;;;11.53;69.46
63665;BME280;49820;33.966;73.390;2022-10-16T00:11:45;79066.38;;;11.66;68.95
63665;BME280;49820;33.966;73.390;2022-10-16T00:14:15;79081.97;;;11.88;66.29
63665;BME280;49820;33.966;73.390;2022-10-16T00:16:47;79070.06;;;11.81;67.18
63665;BME280;49820;33.966;73.390;2022-10-16T00:19:16;79066.03;;;11.82;67.69
63665;BME280;49820;33.966;73.390;2022-10-16T00:21:45;79079.94;;;11.89;66.77
63665;BME280;49820;33.966;73.390;2022-10-16T00:24:13;79068.13;;;11.77;66.67
63665;BME280;49820;33.966;73.390;2022-10-16T00:26:43;79061.69;;;11.66;67.22
63665;BME280;49820;33.966;73.390;2022-10-16T00:29:12;79075.50;;;11.77;66.66
63665;BME280;49820;33.966;73.390;2022-10-16T00:31:41;79084.81;;;11.80;65.77
63665;BME280;49820;33.966;73.390;2022-10-16T00:34:10;79077.16;;;11.62;67.59
63665;BME280;49820;33.966;73.390;2022-10-16T00:36:39;79089.19;;;11.63;67.73
63665;BME280;49820;33.966;73.390;2022-10-16T00:39:08;79075.53;;;11.44;67.50
63665;BME280;49820;33.966;73.390;2022-10-16T00:41:38;79091.38;;;11.54;68.26
63665;BME280;49820;33.966;73.390;2022-10-16T00:44:45;79103.00;;;11.42;68.53
63665;BME280;49820;33.966;73.390;2022-10-16T00:52:39;79095.97;;;10.94;63.16
63665;BME280;49820;33.966;73.390;2022-10-16T00:55:11;79081.69;;;10.70;64.91
63665;BME280;49820;33.966;73.390;2022-10-16T00:57:41;79091.16;;;10.65;65.31
63665;BME280;49820;33.966;73.390;2022-10-16T01:00:14;79101.28;;;10.59;64.24
63665;BME280;49820;33.966;73.390;2022-10-16T01:02:44;79108.78;;;10.50;68.89
63665;BME280;49820;33.966;73.390;2022-10-16T01:05:13;79100.69;;;10.17;70.49
63665;BME280;49820;33.966;73.390;2022-10-16T01:08:02;79110.50;;;10.29;65.49
63665;BME280;49820;33.966;73.390;2022-10-16T01:13:18;79107.25;;;10.61;59.46
63665;BME280;49820;33.966;73.390;2022-10-16T01:18:54;79113.13;;;10.31;65.68
63665;BME280;49820;33.966;73.390;2022-10-16T01:21:29;79120.97;;;10.41;67.45
63665;BME280;49820;33.966;73.390;2022-10-16T01:24:17;79118.75;;;10.54;72.50
63665;BME280;49820;33.966;73.390;2022-10-16T01:27:21;79125.72;;;10.74;72.07
63665;BME280;49820;33.966;73.390;2022-10-16T01:30:23;79121.09;;;11.07;74.68
63665;BME280;49820;33.966;73.390;2022-10-16T01:33:06;79121.13;;;11.38;76.64
63665;BME280;49820;33.966;73.390;2022-10-16T01:35:42;79123.31;;;11.62;71.73
63665;BME280;49820;33.966;73.390;2022-10-16T01:38:38;79119.56;;;11.82;66.00
63665;BME280;49820;33.966;73.390;2022-10-16T01:41:15;79126.56;;;12.29;65.95
63665;BME280;49820;33.966;73.390;2022-10-16T01:44:01;79135.63;;;12.42;61.44
63665;BME280;49820;33.966;73.390;2022-10-16T01:46:34;79131.50;;;12.74;65.85
63665;BME280;49820;33.966;73.390;2022-10-16T01:49:05;79126.25;;;12.96;64.00
63665;BME280;49820;33.966;73.390;2022-10-16T01:51:35;79139.50;;;13.29;58.80
63665;BME280;49820;33.966;73.390;2022-10-16T01:54:08;79144.72;;;13.60;58.55
63665;BME280;49820;33.966;73.390;2022-10-16T01:56:39;79131.44;;;13.79;56.05
63665;BME280;49820;33.966;73.390;2022-10-16T01:59:13;79150.66;;;14.12;56.50
63665;BME280;49820;33.966;73.390;2022-10-16T02:01:47;79134.47;;;14.37;58.74
63665;BME280;49820;33.966;73.390;2022-10-16T02:04:26;79134.22;;;14.68;57.50
63665;BME280;49820;33.966;73.390;2022-10-16T02:06:56;79152.19;;;15.17;55.85
63665;BME280;49820;33.966;73.390;2022-10-16T02:09:26;79151.00;;;15.33;55.09
63665;BME280;49820;33.966;73.390;2022-10-16T02:11:57;79150.78;;;15.62;52.98
63665;BME280;49820;33.966;73.390;2022-10-16T02:14:28;79120.50;;;15.61;51.19
63665;BME280;49820;33.966;73.390;2022-10-16T02:16:58;79150.31;;;15.95;51.58
63665;BME280;49820;33.966;73.390;2022-10-16T02:19:27;79152.47;;;16.49;54.16
63665;BME280;49820;33.966;73.390;2022-10-16T02:22:06;79137.97;;;16.58;56.82
63665;BME280;49820;33.966;73.390;2022-10-16T02:24:59;79151.81;;;16.86;56.01
63665;BME280;49820;33.966;73.390;2022-10-16T02:27:55;79157.03;;;17.08;57.36
63665;BME280;49820;33.966;73.390;2022-10-16T02:30:30;79165.75;;;17.44;56.01
63665;BME280;49820;33.966;73.390;2022-10-16T02:33:03;79169.16;;;17.62;54.35
63665;BME280;49820;33.966;73.390;2022-10-16T02:35:34;79159.97;;;17.54;55.42
63665;BME280;49820;33.966;73.390;2022-10-16T02:38:05;79167.84;;;18.11;55.61
63665;BME280;49820;33.966;73.390;2022-10-16T02:40:35;79161.19;;;18.24;48.70
63665;BME280;49820;33.966;73.390;2022-10-16T02:43:06;79173.59;;;18.67;44.95
63665;BME280;49820;33.966;73.390;2022-10-16T02:45:36;79176.97;;;18.68;42.63
63665;BME280;49820;33.966;73.390;2022-10-16T02:48:05;79177.03;;;18.66;41.92
63665;BME280;49820;33.966;73.390;2022-10-16T02:50:34;79187.47;;;18.91;42.90
63665;BME280;49820;33.966;73.390;2022-10-16T02:53:03;79182.09;;;19.05;40.51
63665;BME280;49820;33.966;73.390;2022-10-16T02:55:32;79186.75;;;18.92;39.83
63665;BME280;49820;33.966;73.390;2022-10-16T02:58:01;79200.13;;;18.96;39.82
63665;BME280;49820;33.966;73.390;2022-10-16T03:00:30;79190.28;;;18.89;40.94
63665;BME280;49820;33.966;73.390;2022-10-16T03:02:59;79213.69;;;19.11;40.59
63665;BME280;49820;33.966;73.390;2022-10-16T03:05:28;79193.91;;;18.83;42.34
63665;BME280;49820;33.966;73.390;2022-10-16T03:07:57;79211.09;;;18.92;43.08
63665;BME280;49820;33.966;73.390;2022-10-16T03:10:28;79207.13;;;18.75;45.16
63665;BME280;49820;33.966;73.390;2022-10-16T03:12:57;79197.50;;;18.63;45.73
63665;BME280;49820;33.966;73.390;2022-10-16T03:15:27;79203.72;;;18.43;47.66
63665;BME280;49820;33.966;73.390;2022-10-16T03:18:00;79224.28;;;18.52;48.51
63665;BME280;49820;33.966;73.390;2022-10-16T03:20:30;79224.63;;;18.44;48.98
63665;BME280;49820;33.966;73.390;2022-10-16T03:22:59;79214.13;;;18.36;48.63
63665;BME280;49820;33.966;73.390;2022-10-16T03:25:28;79221.59;;;18.36;48.62
63665;BME280;49820;33.966;73.390;2022-10-16T03:27:57;79204.63;;;18.37;49.06
63665;BME280;49820;33.966;73.390;2022-10-16T03:30:27;79216.78;;;18.21;48.61
63665;BME280;49820;33.966;73.390;2022-10-16T03:32:56;79225.59;;;18.53;48.35
63665;BME280;49820;33.966;73.390;2022-10-16T03:35:25;79231.81;;;18.50;48.99
63665;BME280;49820;33.966;73.390;2022-10-16T03:37:54;79213.22;;;18.42;49.20
63665;BME280;49820;33.966;73.390;2022-10-16T03:40:25;79233.97;;;18.64;49.75
63665;BME280;49820;33.966;73.390;2022-10-16T03:42:54;79235.38;;;18.63;49.31
63665;BME280;49820;33.966;73.390;2022-10-16T03:45:27;79228.72;;;18.26;50.62
63665;BME280;49820;33.966;73.390;2022-10-16T03:47:55;79243.16;;;18.04;50.96
63665;BME280;49820;33.966;73.390;2022-10-16T03:50:24;79241.91;;;18.01;52.67
63665;BME280;49820;33.966;73.390;2022-10-16T03:52:53;79236.81;;;17.93;52.16
63665;BME280;49820;33.966;73.390;2022-10-16T03:55:22;79242.25;;;17.58;52.46
63665;BME280;49820;33.966;73.390;2022-10-16T03:57:51;79236.88;;;17.39;53.43
63665;BME280;49820;33.966;73.390;2022-10-16T04:00:20;79247.63;;;17.03;54.77
63665;BME280;49820;33.966;73.390;2022-10-16T04:02:49;79251.06;;;17.02;54.92
63665;BME280;49820;33.966;73.390;2022-10-16T04:05:19;79267.41;;;16.98;56.53
63665;BME280;49820;33.966;73.390;2022-10-16T04:07:47;79254.50;;;16.82;56.03
63665;BME280;49820;33.966;73.390;2022-10-16T04:10:16;79251.72;;;16.65;57.06
63665;BME280;49820;33.966;73.390;2022-10-16T04:12:45;79261.66;;;16.50;58.87
63665;BME280;49820;33.966;73.390;2022-10-16T04:15:14;79253.41;;;16.35;57.69
63665;BME280;49820;33.966;73.390;2022-10-16T04:17:43;79267.75;;;16.29;59.71
63665;BME280;49820;33.966;73.390;2022-10-16T04:20:13;79266.19;;;16.16;60.21
63665;BME280;49820;33.966;73.390;2022-10-16T04:22:42;79266.56;;;16.24;59.65
63665;BME280;49820;33.966;73.390;2022-10-16T04:25:11;79260.66;;;16.20;60.30
63665;BME280;49820;33.966;73.390;2022-10-16T04:27:40;79278.34;;;16.15;59.92
63665;BME280;49820;33.966;73.390;2022-10-16T04:30:13;79271.84;;;16.08;61.08
63665;BME280;49820;33.966;73.390;2022-10-16T04:32:42;79260.59;;;16.01;61.90
63665;BME280;49820;33.966;73.390;2022-10-16T04:35:11;79250.47;;;16.01;62.16
63665;BME280;49820;33.966;73.390;2022-10-16T04:37:40;79282.69;;;16.26;61.84
63665;BME280;49820;33.966;73.390;2022-10-16T04:40:10;79267.28;;;16.23;62.22
63665;BME280;49820;33.966;73.390;2022-10-16T04:42:39;79275.03;;;16.33;61.52
63665;BME280;49820;33.966;73.390;2022-10-16T04:45:09;79277.47;;;16.41;61.79
63665;BME280;49820;33.966;73.390;2022-10-16T04:47:43;79270.09;;;16.39;61.19
63665;BME280;49820;33.966;73.390;2022-10-16T04:50:12;79268.44;;;16.49;60.45
63665;BME280;49820;33.966;73.390;2022-10-16T04:53:00;79279.53;;;16.59;61.70
63665;BME280;49820;33.966;73.390;2022-10-16T04:55:29;79270.78;;;16.59;60.39
63665;BME280;49820;33.966;73.390;2022-10-16T04:57:58;79278.94;;;16.77;61.09
63665;BME280;49820;33.966;73.390;2022-10-16T05:00:28;79248.59;;;16.77;63.38
63665;BME280;49820;33.966;73.390;2022-10-16T05:02:56;79246.75;;;16.90;61.66
63665;BME280;49820;33.966;73.390;2022-10-16T05:05:32;79264.19;;;17.12;60.71
63665;BME280;49820;33.966;73.390;2022-10-16T05:08:02;79261.00;;;17.26;58.07
63665;BME280;49820;33.966;73.390;2022-10-16T05:10:32;79255.28;;;17.34;59.44
63665;BME280;49820;33.966;73.390;2022-10-16T05:13:01;79269.31;;;17.74;58.91
63665;BME280;49820;33.966;73.390;2022-10-16T05:15:30;79269.28;;;18.10;58.98
63665;BME280;49820;33.966;73.390;2022-10-16T05:17:59;79262.16;;;18.36;60.74
63665;BME280;49820;33.966;73.390;2022-10-16T05:20:29;79246.34;;;18.59;55.24
63665;BME280;49820;33.966;73.390;2022-10-16T05:22:58;79264.84;;;19.02;56.86
63665;BME280;49820;33.966;73.390;2022-10-16T05:25:27;79264.44;;;19.27;52.71
63665;BME280;49820;33.966;73.390;2022-10-16T05:27:56;79259.88;;;19.70;54.28
63665;BME280;49820;33.966;73.390;2022-10-16T05:30:26;79271.59;;;20.10;54.19
63665;BME280;49820;33.966;73.390;2022-10-16T05:32:55;79270.00;;;20.15;51.08
63665;BME280;49820;33.966;73.390;2022-10-16T05:35:25;79265.59;;;20.67;50.29
63665;BME280;49820;33.966;73.390;2022-10-16T05:37:54;79270.22;;;21.25;55.37
63665;BME280;49820;33.966;73.390;2022-10-16T05:40:24;79268.22;;;21.38;48.06
63665;BME280;49820;33.966;73.390;2022-10-16T05:42:55;79264.81;;;21.65;47.85
63665;BME280;49820;33.966;73.390;2022-10-16T05:45:25;79276.38;;;21.78;46.04
63665;BME280;49820;33.966;73.390;2022-10-16T05:47:54;79272.50;;;21.88;47.12
63665;BME280;49820;33.966;73.390;2022-10-16T05:50:23;79267.00;;;21.62;46.32
63665;BME280;49820;33.966;73.390;2022-10-16T05:52:52;79259.06;;;22.24;45.93
63665;BME280;49820;33.966;73.390;2022-10-16T05:55:22;79259.50;;;22.54;45.78
63665;BME280;49820;33.966;73.390;2022-10-16T05:57:54;79262.53;;;22.73;47.02
63665;BME280;49820;33.966;73.390;2022-10-16T06:00:25;79263.41;;;22.82;45.16
63665;BME280;49820;33.966;73.390;2022-10-16T06:02:53;79254.44;;;23.09;44.97
63665;BME280;49820;33.966;73.390;2022-10-16T06:05:23;79231.56;;;23.40;47.00
63665;BME280;49820;33.966;73.390;2022-10-16T06:07:52;79252.94;;;23.94;47.02
63665;BME280;49820;33.966;73.390;2022-10-16T06:10:21;79245.97;;;23.74;45.53
63665;BME280;49820;33.966;73.390;2022-10-16T06:12:49;79238.16;;;24.02;43.09
63665;BME280;49820;33.966;73.390;2022-10-16T06:15:19;79252.41;;;24.15;44.10
63665;BME280;49820;33.966;73.390;2022-10-16T06:17:47;79233.75;;;23.73;42.64
63665;BME280;49820;33.966;73.390;2022-10-16T06:20:17;79242.22;;;24.26;41.55
63665;BME280;49820;33.966;73.390;2022-10-16T06:22:46;79239.66;;;24.12;41.18
63665;BME280;49820;33.966;73.390;2022-10-16T06:25:15;79253.00;;;24.05;45.21
63665;BME280;49820;33.966;73.390;2022-10-16T06:27:44;79238.72;;;24.28;40.75
63665;BME280;49820;33.966;73.390;2022-10-16T06:30:13;79249.56;;;23.94;41.44
63665;BME280;49820;33.966;73.390;2022-10-16T06:32:42;79234.44;;;24.31;44.73
63665;BME280;49820;33.966;73.390;2022-10-16T06:35:11;79252.41;;;24.39;43.27
63665;BME280;49820;33.966;73.390;2022-10-16T06:37:40;79233.84;;;23.94;44.33
63665;BME280;49820;33.966;73.390;2022-10-16T06:40:10;79236.34;;;24.22;44.93
63665;BME280;49820;33.966;73.390;2022-10-16T06:42:39;79233.13;;;24.64;42.23
63665;BME280;49820;33.966;73.390;2022-10-16T06:45:09;79229.41;;;24.91;43.81
63665;BME280;49820;33.966;73.390;2022-10-16T06:47:38;79221.31;;;24.10;40.70
63665;BME280;49820;33.966;73.390;2022-10-16T06:50:07;79225.25;;;24.47;43.29
63665;BME280;49820;33.966;73.390;2022-10-16T06:52:36;79227.47;;;25.00;42.05
63665;BME280;49820;33.966;73.390;2022-10-16T06:55:05;79237.16;;;25.41;42.16
63665;BME280;49820;33.966;73.390;2022-10-16T06:57:34;79237.94;;;25.51;45.17
63665;BME280;49820;33.966;73.390;2022-10-16T07:00:03;79221.13;;;25.35;40.95
63665;BME280;49820;33.966;73.390;2022-10-16T07:02:32;79211.47;;;25.04;40.40
63665;BME280;49820;33.966;73.390;2022-10-16T07:05:01;79196.63;;;25.01;40.45
63665;BME280;49820;33.966;73.390;2022-10-16T07:07:31;79198.84;;;24.99;41.17
63665;BME280;49820;33.966;73.390;2022-10-16T07:10:00;79208.25;;;25.13;44.50
63665;BME280;49820;33.966;73.390;2022-10-16T07:12:30;79211.59;;;25.02;42.19
63665;BME280;49820;33.966;73.390;2022-10-16T07:14:59;79204.31;;;25.09;41.29
63665;BME280;49820;33.966;73.390;2022-10-16T07:17:29;79217.28;;;24.88;43.95
63665;BME280;49820;33.966;73.390;2022-10-16T07:19:58;79174.63;;;25.14;40.39
63665;BME280;49820;33.966;73.390;2022-10-16T07:22:28;79210.31;;;25.12;42.24
63665;BME280;49820;33.966;73.390;2022-10-16T07:24:57;79178.22;;;24.79;40.91
63665;BME280;49820;33.966;73.390;2022-10-16T07:27:27;79195.34;;;25.75;39.71
63665;BME280;49820;33.966;73.390;2022-10-16T07:29:56;79184.91;;;25.56;43.64
63665;BME280;49820;33.966;73.390;2022-10-16T07:32:28;79197.69;;;25.49;38.54
63665;BME280;49820;33.966;73.390;2022-10-16T07:34:56;79189.75;;;25.77;40.27
63665;BME280;49820;33.966;73.390;2022-10-16T07:37:26;79190.78;;;25.71;37.37
63665;BME280;49820;33.966;73.390;2022-10-16T07:39:56;79185.16;;;25.84;37.17
63665;BME280;49820;33.966;73.390;2022-10-16T07:42:26;79185.03;;;25.22;38.42
63665;BME280;49820;33.966;73.390;2022-10-16T07:44:56;79193.53;;;25.29;38.88
63665;BME280;49820;33.966;73.390;2022-10-16T07:47:25;79165.66;;;25.05;40.05
63665;BME280;49820;33.966;73.390;2022-10-16T07:49:56;79189.59;;;25.47;39.22
63665;BME280;49820;33.966;73.390;2022-10-16T07:52:25;79178.16;;;25.66;40.88
63665;BME280;49820;33.966;73.390;2022-10-16T07:54:54;79174.59;;;25.89;41.85
63665;BME280;49820;33.966;73.390;2022-10-16T07:57:28;79179.56;;;25.65;43.34
63665;BME280;49820;33.966;73.390;2022-10-16T07:59:57;79177.06;;;25.93;42.44
63665;BME280;49820;33.966;73.390;2022-10-16T08:02:27;79170.44;;;25.47;38.94
63665;BME280;49820;33.966;73.390;2022-10-16T08:04:55;79173.31;;;25.56;39.09
63665;BME280;49820;33.966;73.390;2022-10-16T08:07:25;79176.06;;;25.45;37.83
63665;BME280;49820;33.966;73.390;2022-10-16T08:09:54;79178.75;;;25.88;39.93
63665;BME280;49820;33.966;73.390;2022-10-16T08:12:27;79151.31;;;25.47;38.47
63665;BME280;49820;33.966;73.390;2022-10-16T08:14:57;79170.44;;;25.79;41.96
63665;BME280;49820;33.966;73.390;2022-10-16T08:17:26;79161.94;;;25.94;38.91
63665;BME280;49820;33.966;73.390;2022-10-16T08:19:56;79160.53;;;25.73;38.26
63665;BME280;49820;33.966;73.390;2022-10-16T08:22:25;79164.13;;;26.02;38.09
63665;BME280;49820;33.966;73.390;2022-10-16T08:24:54;79162.13;;;25.17;38.39
63665;BME280;49820;33.966;73.390;2022-10-16T08:27:23;79140.38;;;25.26;38.34
63665;BME280;49820;33.966;73.390;2022-10-16T08:29:53;79148.06;;;25.34;38.18
63665;BME280;49820;33.966;73.390;2022-10-16T08:32:21;79148.53;;;24.62;37.79
63665;BME280;49820;33.966;73.390;2022-10-16T08:34:54;79150.25;;;24.78;39.06
63665;BME280;49820;33.966;73.390;2022-10-16T08:37:23;79123.53;;;24.36;39.75
63665;BME280;49820;33.966;73.390;2022-10-16T08:39:52;79138.81;;;24.86;41.44
63665;BME280;49820;33.966;73.390;2022-10-16T08:42:36;79117.06;;;25.27;41.63
63665;BME280;49820;33.966;73.390;2022-10-16T08:48:14;79133.31;;;25.50;36.42
63665;BME280;49820;33.966;73.390;2022-10-16T08:50:45;79137.25;;;25.32;37.59
63665;BME280;49820;33.966;73.390;2022-10-16T08:53:48;79143.50;;;25.52;38.41
63665;BME280;49820;33.966;73.390;2022-10-16T08:56:19;79138.81;;;25.61;38.36
63665;BME280;49820;33.966;73.390;2022-10-16T08:58:49;79137.63;;;24.83;37.72
63665;BME280;49820;33.966;73.390;2022-10-16T09:01:24;79134.47;;;24.47;37.34
63665;BME280;49820;33.966;73.390;2022-10-16T09:10:02;79136.56;;;24.67;41.41
63665;BME280;49820;33.966;73.390;2022-10-16T09:15:36;79141.56;;;25.18;39.15
63665;BME280;49820;33.966;73.390;2022-10-16T09:21:07;79142.44;;;24.61;39.12
63665;BME280;49820;33.966;73.390;2022-10-16T09:23:38;79115.31;;;24.25;40.56
63665;BME280;49820;33.966;73.390;2022-10-16T09:26:12;79126.41;;;24.66;37.50
63665;BME280;49820;33.966;73.390;2022-10-16T09:28:42;79113.50;;;24.43;37.52
63665;BME280;49820;33.966;73.390;2022-10-16T09:31:16;79123.66;;;24.45;36.65
63665;BME280;49820;33.966;73.390;2022-10-16T09:33:55;79094.88;;;23.80;37.88
63665;BME280;49820;33.966;73.390;2022-10-16T09:36:29;79129.53;;;24.60;36.79
63665;BME280;49820;33.966;73.390;2022-10-16T09:39:09;79126.69;;;24.73;37.45
63665;BME280;49820;33.966;73.390;2022-10-16T09:41:43;79117.84;;;24.61;37.63
63665;BME280;49820;33.966;73.390;2022-10-16T09:46:49;79117.34;;;25.01;35.76
63665;BME280;49820;33.966;73.390;2022-10-16T09:49:23;79119.03;;;25.18;38.70
63665;BME280;49820;33.966;73.390;2022-10-16T09:52:14;79128.28;;;24.91;36.31
63665;BME280;49820;33.966;73.390;2022-10-16T09:55:14;79109.00;;;25.25;36.17
63665;BME280;49820;33.966;73.390;2022-10-16T09:57:53;79119.44;;;25.12;36.42
63665;BME280;49820;33.966;73.390;2022-10-16T10:00:24;79124.09;;;24.70;36.87
63665;BME280;49820;33.966;73.390;2022-10-16T10:02:54;79111.59;;;24.84;37.87
63665;BME280;49820;33.966;73.390;2022-10-16T10:05:26;79130.22;;;25.24;36.79
63665;BME280;49820;33.966;73.390;2022-10-16T10:08:02;79103.91;;;24.76;37.65
63665;BME280;49820;33.966;73.390;2022-10-16T10:10:41;79113.44;;;24.98;37.65
63665;BME280;49820;33.966;73.390;2022-10-16T10:13:22;79109.78;;;24.70;36.53
63665;BME280;49820;33.966;73.390;2022-10-16T10:15:57;79126.72;;;24.94;37.41
63665;BME280;49820;33.966;73.390;2022-10-16T10:18:25;79108.59;;;24.67;37.50
63665;BME280;49820;33.966;73.390;2022-10-16T10:21:02;79122.38;;;24.65;37.02
63665;BME280;49820;33.966;73.390;2022-10-16T10:23:33;79129.00;;;24.57;40.96
63665;BME280;49820;33.966;73.390;2022-10-16T10:26:11;79127.06;;;24.45;37.38
63665;BME280;49820;33.966;73.390;2022-10-16T10:31:54;79118.00;;;24.15;40.28
63665;BME280;49820;33.966;73.390;2022-10-16T10:34:52;79124.06;;;24.39;38.96
63665;BME280;49820;33.966;73.390;2022-10-16T10:45:52;79110.81;;;23.65;38.53
63665;BME280;49820;33.966;73.390;2022-10-16T11:00:39;79118.88;;;23.20;40.51
63665;BME280;49820;33.966;73.390;2022-10-16T11:06:04;79117.50;;;22.85;40.96
63665;BME280;49820;33.966;73.390;2022-10-16T11:11:18;79116.59;;;22.53;42.29
63665;BME280;49820;33.966;73.390;2022-10-16T11:22:49;79143.16;;;20.58;48.25
63665;BME280;49820;33.966;73.390;2022-10-16T11:25:31;79137.59;;;20.33;49.56
63665;BME280;49820;33.966;73.390;2022-10-16T11:28:24;79132.22;;;19.61;53.39
63665;BME280;49820;33.966;73.390;2022-10-16T11:36:16;79144.25;;;18.57;57.62
63665;BME280;49820;33.966;73.390;2022-10-16T11:50:45;79138.94;;;16.69;74.12
63665;BME280;49820;33.966;73.390;2022-10-16T11:53:23;79159.34;;;16.64;76.56
63665;BME280;49820;33.966;73.390;2022-10-16T11:55:53;79150.72;;;16.41;78.82
63665;BME280;49820;33.966;73.390;2022-10-16T12:04:09;79174.88;;;16.06;84.69
63665;BME280;49820;33.966;73.390;2022-10-16T12:06:54;79180.31;;;15.85;87.59
63665;BME280;49820;33.966;73.390;2022-10-16T12:09:34;79150.75;;;15.41;89.76
63665;BME280;49820;33.966;73.390;2022-10-16T12:12:41;79170.13;;;15.46;91.66
63665;BME280;49820;33.966;73.390;2022-10-16T12:15:33;79164.59;;;15.08;96.94
63665;BME280;49820;33.966;73.390;2022-10-16T12:18:24;79158.44;;;14.91;97.32
63665;BME280;49820;33.966;73.390;2022-10-16T12:20:57;79178.16;;;14.83;99.75
63665;BME280;49820;33.966;73.390;2022-10-16T12:23:50;79175.34;;;14.65;100.00
63665;BME280;49820;33.966;73.390;2022-10-16T12:26:29;79181.50;;;14.61;100.00
63665;BME280;49820;33.966;73.390;2022-10-16T12:31:48;79185.59;;;14.35;100.00
63665;BME280;49820;33.966;73.390;2022-10-16T12:34:43;79184.81;;;14.16;100.00
63665;BME280;49820;33.966;73.390;2022-10-16T12:37:23;79193.31;;;14.00;100.00
63665;BME280;49820;33.966;73.390;2022-10-16T12:39:54;79191.47;;;13.94;100.00
63665;BME280;49820;33.966;73.390;2022-10-16T12:42:34;79190.41;;;13.83;100.00
63665;BME280;49820;33.966;73.390;2022-10-16T12:45:30;79185.97;;;13.73;100.00
63665;BME280;49820;33.966;73.390;2022-10-16T12:48:02;79203.78;;;13.60;100.00
63665;BME280;49820;33.966;73.390;2022-10-16T12:50:37;79201.84;;;13.57;100.00
63665;BME280;49820;33.966;73.390;2022-10-16T12:53:21;79193.56;;;13.40;100.00
63665;BME280;49820;33.966;73.390;2022-10-16T13:09:46;79204.13;;;13.21;100.00
63665;BME280;49820;33.966;73.390;2022-10-16T13:15:35;79207.69;;;13.12;100.00
63665;BME280;49820;33.966;73.390;2022-10-16T13:21:01;79211.75;;;13.09;100.00
63665;BME280;49820;33.966;73.390;2022-10-16T13:23:51;79209.91;;;13.03;100.00
63665;BME280;49820;33.966;73.390;2022-10-16T13:26:57;79220.63;;;13.03;100.00
63665;BME280;49820;33.966;73.390;2022-10-16T13:29:31;79207.69;;;12.83;100.00
63665;BME280;49820;33.966;73.390;2022-10-16T13:35:31;79221.06;;;12.85;100.00
63665;BME280;49820;33.966;73.390;2022-10-16T13:38:18;79226.66;;;13.04;100.00
63665;BME280;49820;33.966;73.390;2022-10-16T13:40:56;79226.53;;;13.08;100.00
63665;BME280;49820;33.966;73.390;2022-10-16T13:43:38;79225.13;;;13.11;100.00
63665;BME280;49820;33.966;73.390;2022-10-16T13:46:20;79231.88;;;13.10;100.00
63665;BME280;49820;33.966;73.390;2022-10-16T13:51:28;79236.41;;;13.17;100.00
63665;BME280;49820;33.966;73.390;2022-10-16T13:53:58;79242.38;;;13.20;100.00
63665;BME280;49820;33.966;73.390;2022-10-16T13:56:29;79238.34;;;13.21;100.00
63665;BME280;49820;33.966;73.390;2022-10-16T14:04:19;79215.34;;;12.99;100.00
63665;BME280;49820;33.966;73.390;2022-10-16T14:06:50;79243.81;;;13.15;100.00
63665;BME280;49820;33.966;73.390;2022-10-16T14:09:26;79231.44;;;12.99;100.00
63665;BME280;49820;33.966;73.390;2022-10-16T14:12:08;79246.41;;;12.90;100.00
63665;BME280;49820;33.966;73.390;2022-10-16T14:14:48;79250.53;;;12.85;100.00
63665;BME280;49820;33.966;73.390;2022-10-16T14:17:27;79253.44;;;12.75;100.00
63665;BME280;49820;33.966;73.390;2022-10-16T14:19:59;79253.44;;;12.75;100.00
63665;BME280;49820;33.966;73.390;2022-10-16T14:22:38;79253.81;;;12.58;100.00
63665;BME280;49820;33.966;73.390;2022-10-16T14:28:13;79260.06;;;12.49;100.00
63665;BME280;49820;33.966;73.390;2022-10-16T14:30:57;79263.13;;;12.31;100.00
63665;BME280;49820;33.966;73.390;2022-10-16T14:36:22;79256.66;;;11.87;100.00
63665;BME280;49820;33.966;73.390;2022-10-16T14:39:17;79254.41;;;11.64;100.00
63665;BME280;49820;33.966;73.390;2022-10-16T14:41:50;79267.03;;;11.68;100.00
63665;BME280;49820;33.966;73.390;2022-10-16T14:44:21;79263.28;;;11.55;100.00
63665;BME280;49820;33.966;73.390;2022-10-16T14:46:55;79269.88;;;11.60;100.00
63665;BME280;49820;33.966;73.390;2022-10-16T14:49:25;79268.59;;;11.57;100.00
63665;BME280;49820;33.966;73.390;2022-10-16T14:51:57;79257.34;;;11.50;100.00
63665;BME280;49820;33.966;73.390;2022-10-16T14:54:26;79270.00;;;11.52;100.00
63665;BME280;49820;33.966;73.390;2022-10-16T14:56:57;79252.31;;;11.34;100.00
63665;BME280;49820;33.966;73.390;2022-10-16T14:59:40;79274.88;;;11.43;100.00
63665;BME280;49820;33.966;73.390;2022-10-16T15:02:34;79272.91;;;11.39;100.00
63665;BME280;49820;33.966;73.390;2022-10-16T15:05:17;79258.59;;;11.18;100.00
63665;BME280;49820;33.966;73.390;2022-10-16T15:07:47;79283.75;;;11.31;100.00
63665;BME280;49820;33.966;73.390;2022-10-16T15:10:17;79267.31;;;11.17;100.00
63665;BME280;49820;33.966;73.390;2022-10-16T15:12:47;79265.50;;;11.05;100.00
63665;BME280;49820;33.966;73.390;2022-10-16T15:17:52;79290.84;;;11.08;100.00
63665;BME280;49820;33.966;73.390;2022-10-16T15:20:25;79284.97;;;10.99;100.00
63665;BME280;49820;33.966;73.390;2022-10-16T15:22:54;79287.53;;;11.05;100.00
63665;BME280;49820;33.966;73.390;2022-10-16T15:28:05;79289.63;;;11.40;100.00
63665;BME280;49820;33.966;73.390;2022-10-16T15:30:35;79290.22;;;11.44;100.00
63665;BME280;49820;33.966;73.390;2022-10-16T15:33:10;79263.69;;;11.32;100.00
63665;BME280;49820;33.966;73.390;2022-10-16T15:35:40;79274.81;;;11.45;100.00